• Join FlightAware (Why Join?)
  • Login
  • US Flag 
10:32PM EST


 

Airport Tracker/Info


-or-


 

Live Flight TrackerFlight Track Log ✈ DAL3678 ✈ 14-Apr-2013 ✈ KMKE - KDTW

Flight Track Log - Related Links

Times and Time Zones

All times are in EDT time to prevent confusion due to time zone crossing. See the DAL3678 flight status page for this flight to view local times or setup timezone preferences in your user account.

Time Position Orientation Groundspeed Altitude Reporting Facility
EDT Latitude Longitude Course Direction KTS MPH feet Rate Location/Type
04:21PM 42.9167 -87.9000 114° Southeast 186 214 1,700  Level KMKE
04:22PM 42.9000 -87.8500 114° Southeast 225 259 4,200 2,040 Climbing KMKE
04:23PM 42.9067 -87.7328 86° East 292 336 6,400 2,220 Climbing Chicago Center
04:24PM 42.9231 -87.6147 79° East 314 361 9,200 2,160 Climbing Chicago Center
04:25PM 42.9431 -87.4700 79° East 332 382 11,000 1,260 Climbing Chicago Center
04:26PM 42.9661 -87.3122 79° East 404 465 11,900 1,020 Climbing Chicago Center
04:27PM 42.9883 -87.1531 79° East 424 488 13,200 1,500 Climbing Chicago Center
04:28PM 43.0106 -86.9911 79° East 435 501 15,000 1,440 Climbing Chicago Center
04:29PM 43.0342 -86.8281 79° East 437 503 16,200 1,140 Climbing Chicago Center
04:30PM 43.0581 -86.6619 79° East 445 512 17,400 1,200 Climbing Chicago Center
04:31PM 43.0814 -86.4961 79° East 445 512 18,700 720 Climbing Chicago Center
04:32PM 43.1086 -86.2903 80° East 456 525 19,000 120 Climbing Chicago Center
04:33PM 43.1331 -86.1131 79° East 466 536 19,000  Level Chicago Center
04:34PM 43.1564 -85.9328 80° East 465 535 19,000  Level Chicago Center
04:35PM 43.1797 -85.7572 80° East 463 533 19,000  Level Chicago Center
04:36PM 43.2025 -85.5831 80° East 463 533 19,000  Level Chicago Center
04:37PM 43.2244 -85.4103 80° East 462 532 19,000  Level Chicago Center
04:38PM 43.2444 -85.2264 81° East 471 542 19,000  Level Cleveland Center
04:39PM 43.2175 -85.0592 102° East 446 513 19,000  Level Cleveland Center
04:40PM 43.1844 -84.8917 105° East 446 513 19,000 -600 Level Cleveland Center
04:41PM 43.1403 -84.7264 110° East 451 519 17,900 -1,080 Descending Cleveland Center
04:42PM 43.0964 -84.5556 109° East 451 519 16,900 -1,500 Descending Cleveland Center
04:43PM 43.0486 -84.4275 117° Southeast 432 497 14,900 -1,920 Descending Cleveland Center
04:44PM 42.9975 -84.2653 113° Southeast 419 482 13,100 -1,500 Descending Cleveland Center
04:45PM 42.9542 -84.1181 112° Southeast 419 482 12,000 -600 Descending Cleveland Center
04:46PM 42.9064 -83.9706 114° Southeast 419 482 12,000  Level Cleveland Center
04:47PM 42.8817 -83.8900 113° Southeast 422 486 12,000  Level Cleveland Center
04:47PM 42.8644 -83.8325 112° Southeast 412 474 12,000  Level Cleveland Center
04:48PM 42.8394 -83.7575 114° Southeast 333 383 12,000  Level Cleveland Center
04:48PM 42.8175 -83.7281 135° Southeast 348 400 12,000 -600 Level Cleveland Center
04:49PM 42.7661 -83.6972 156° South 297 342 11,400 -1,140 Descending Cleveland Center
04:49PM 42.7394 -83.6789 153° Southeast 304 350 10,900 -1,500 Descending Cleveland Center
04:50PM 42.6883 -83.6481 156° South 288 331 9,900 -1,440 Descending Cleveland Center
04:50PM 42.6656 -83.6356 158° South 298 343 9,500 -1,320 Descending Cleveland Center
04:51PM 42.6456 -83.6097 136° Southeast 301 346 9,100 -780 Descending FAA TRACON SMA TRACON (SMA)
04:51PM 42.6336 -83.5781 117° Southeast 303 349 9,000 -600 Descending FAA TRACON SMA TRACON (SMA)
04:51PM 42.6208 -83.5417 116° Southeast 311 358 8,700 -1,080 Descending FAA TRACON SMA TRACON (SMA)
04:52PM 42.6069 -83.5053 117° Southeast 310 357 8,300 -900 Descending FAA TRACON SMA TRACON (SMA)
04:52PM 42.5953 -83.4731 116° Southeast 306 352 8,100 -780 Descending FAA TRACON SMA TRACON (SMA)
04:52PM 42.5831 -83.4397 116° Southeast 291 335 7,800 -960 Descending Cleveland Center
04:53PM 42.5617 -83.3853 118° Southeast 257 296 7,200 -1,020 Descending Cleveland Center
04:53PM 42.5500 -83.3583 120° Southeast 250 288 6,800 -1,320 Descending FAA TRACON SMA TRACON (SMA)
04:54PM 42.5350 -83.3264 122° Southeast 259 298 6,300 -1,380 Descending FAA TRACON SMA TRACON (SMA)
04:54PM 42.5236 -83.3017 122° Southeast 255 293 5,900 -1,080 Descending FAA TRACON SMA TRACON (SMA)
04:55PM 42.5119 -83.2775 123° Southeast 251 289 5,600 -1,080 Descending FAA TRACON SMA TRACON (SMA)
04:55PM 42.4922 -83.2589 145° Southeast 220 253 5,200 -1,080 Descending FAA TRACON SMA TRACON (SMA)
04:55PM 42.4747 -83.2497 159° South 218 251 4,900 -780 Descending FAA TRACON SMA TRACON (SMA)
04:55PM 42.4547 -83.2403 161° South 210 242 4,700 -600 Descending FAA TRACON SMA TRACON (SMA)
04:56PM 42.4389 -83.2333 162° South 207 238 4,500 -480 Descending FAA TRACON SMA TRACON (SMA)
04:56PM 42.4217 -83.2272 165° South 203 234 4,400 -480 Descending FAA TRACON SMA TRACON (SMA)
04:56PM 42.4006 -83.2353 196° South 189 217 4,200 -600 Descending FAA TRACON SMA TRACON (SMA)
04:57PM 42.3875 -83.2439 206° Southwest 182 209 4,000 -300 Descending FAA TRACON SMA TRACON (SMA)
04:57PM 42.3739 -83.2544 210° Southwest 179 206 4,000 -360 Level FAA TRACON SMA TRACON (SMA)
04:57PM 42.3592 -83.2686 215° Southwest 184 212 3,800 -780 Descending FAA TRACON SMA TRACON (SMA)
04:58PM 42.3436 -83.2811 211° Southwest 181 208 3,500 -1,080 Descending FAA TRACON SMA TRACON (SMA)
04:58PM 42.3300 -83.2911 209° Southwest 171 197 3,100 -1,080 Descending FAA TRACON SMA TRACON (SMA)
04:59PM 42.3156 -83.3008 206° Southwest 157 181 2,800 -900 Descending FAA TRACON SMA TRACON (SMA)
04:59PM 42.3031 -83.3097 208° Southwest 153 176 2,500 -900 Descending FAA TRACON SMA TRACON (SMA)
04:59PM 42.2894 -83.3197 209° Southwest 152 175 2,200 -780 Descending FAA TRACON SMA TRACON (SMA)
05:00PM 42.2794 -83.3278 211° Southwest 151 174 2,000 -780 Descending FAA TRACON SMA TRACON (SMA)
05:00PM 42.2658 -83.3375 208° Southwest 151 174 1,700 -900 Descending FAA TRACON SMA TRACON (SMA)
05:00PM 42.2542 -83.3456 207° Southwest 148 170 1,400 -780 Descending FAA TRACON SMA TRACON (SMA)
05:00PM 42.2433 -83.3536 209° Southwest 152 175 1,200 -900 Descending FAA TRACON SMA TRACON (SMA)
05:01PM 42.2297 -83.3636 209° Southwest 153 176 800 -780 Descending FAA TRACON SMA TRACON (SMA)
05:01PM 42.2189 -83.3717 209° Southwest 134 154 700 -180 Descending FAA TRACON SMA TRACON (SMA)
05:01PM 42.2128 -83.3761 208° Southwest 67 77 700  Level FAA TRACON SMA TRACON (SMA)
05:02PM 42.2128 -83.3761 200° South 67 77 700  Level FAA TRACON SMA TRACON (SMA)